createdAt,value
2023-04-21T00:00:31.722Z,9.85
2023-04-21T00:01:29.991Z,9.75
2023-04-21T00:02:27.476Z,10.50
2023-04-21T00:03:24.654Z,10.45
2023-04-21T00:04:21.496Z,10.27
2023-04-21T00:05:18.510Z,10.77
2023-04-21T00:06:22.386Z,11.07
2023-04-21T00:07:20.280Z,9.88
2023-04-21T00:08:18.138Z,10.45
2023-04-21T00:09:14.677Z,9.48
2023-04-21T00:10:11.961Z,9.63
2023-04-21T00:11:08.776Z,9.98
2023-04-21T00:12:05.494Z,10.30
2023-04-21T00:13:02.026Z,9.77
2023-04-21T00:13:58.606Z,9.80
2023-04-21T00:14:55.345Z,10.20
2023-04-21T00:15:51.971Z,10.25
2023-04-21T00:16:54.412Z,10.68
2023-04-21T00:17:51.079Z,10.82
2023-04-21T00:18:48.067Z,10.88
2023-04-21T00:19:45.001Z,10.40
2023-04-21T00:20:42.801Z,11.20
2023-04-21T00:21:39.595Z,10.93
2023-04-21T00:22:36.472Z,11.07
2023-04-21T00:23:33.145Z,10.60
2023-04-21T00:24:29.760Z,10.10
2023-04-21T00:25:26.714Z,11.05
2023-04-21T00:26:23.302Z,10.30
2023-04-21T00:27:20.024Z,10.73
2023-04-21T00:28:16.726Z,10.60
2023-04-21T00:29:13.357Z,10.35
2023-04-21T00:30:10.574Z,10.48
2023-04-21T00:31:07.213Z,9.80
2023-04-21T00:32:07.032Z,10.02
2023-04-21T00:33:03.671Z,10.10
2023-04-21T00:34:00.292Z,10.05
2023-04-21T00:34:56.919Z,10.00
2023-04-21T00:35:54.547Z,9.20
2023-04-21T00:36:51.094Z,9.75
2023-04-21T00:37:47.651Z,9.18
2023-04-21T00:38:44.248Z,9.35
2023-04-21T00:39:40.975Z,9.75
2023-04-21T00:40:37.579Z,10.60
2023-04-21T00:41:35.412Z,10.27
2023-04-21T00:42:31.991Z,9.85
2023-04-21T00:43:29.122Z,10.10
2023-04-21T00:44:25.718Z,9.35
2023-04-21T00:45:22.430Z,10.18
2023-04-21T00:46:19.021Z,9.43
2023-04-21T00:47:15.688Z,9.32
2023-04-21T00:48:12.513Z,9.25
2023-04-21T00:49:09.466Z,9.02
2023-04-21T00:50:06.417Z,9.57
2023-04-21T00:51:03.083Z,9.35
2023-04-21T00:52:00.592Z,9.18
2023-04-21T00:52:57.666Z,8.93
2023-04-21T00:53:55.859Z,8.90
2023-04-21T00:54:53.448Z,9.52
2023-04-21T00:55:50.880Z,9.30
2023-04-21T00:56:47.592Z,9.45
2023-04-21T00:57:44.899Z,10.25
2023-04-21T00:58:42.618Z,9.15
2023-04-21T00:59:39.229Z,8.68
2023-04-21T01:00:36.560Z,9.48
2023-04-21T01:01:34.424Z,9.60
2023-04-21T01:02:31.285Z,10.10
2023-04-21T01:03:28.437Z,10.13
2023-04-21T01:04:25.752Z,10.73
2023-04-21T01:05:23.086Z,10.13
2023-04-21T01:06:19.931Z,9.57
2023-04-21T01:07:16.648Z,10.27
2023-04-21T01:08:14.317Z,9.65
2023-04-21T01:09:12.755Z,9.73
2023-04-21T01:10:09.693Z,9.93
2023-04-21T01:11:11.159Z,9.80
2023-04-21T01:12:10.624Z,8.98
2023-04-21T01:13:07.176Z,10.00
2023-04-21T01:14:03.754Z,11.52
2023-04-21T01:15:00.866Z,10.13
2023-04-21T01:15:57.485Z,10.10
2023-04-21T01:16:54.273Z,10.68
2023-04-21T01:17:54.093Z,10.10
2023-04-21T01:18:52.217Z,9.57
2023-04-21T01:19:50.524Z,9.90
2023-04-21T01:20:47.161Z,10.98
2023-04-21T01:21:44.269Z,11.13
2023-04-21T01:22:42.711Z,11.48
2023-04-21T01:23:40.571Z,11.45
2023-04-21T01:24:45.246Z,9.52
2023-04-21T01:25:41.804Z,10.90
2023-04-21T01:26:38.426Z,10.85
2023-04-21T01:27:35.326Z,11.60
2023-04-21T01:28:32.314Z,12.60
2023-04-21T01:29:33.136Z,12.32
2023-04-21T01:30:29.777Z,11.50
2023-04-21T01:31:27.441Z,12.57
2023-04-21T01:32:29.171Z,11.77
2023-04-21T01:33:26.072Z,11.80
2023-04-21T01:34:22.647Z,12.32
2023-04-21T01:35:19.480Z,12.48
2023-04-21T01:36:16.059Z,12.00
2023-04-21T01:37:18.023Z,12.20
2023-04-21T01:38:19.627Z,11.35
2023-04-21T01:39:16.518Z,11.65
2023-04-21T01:40:13.871Z,12.23
2023-04-21T01:41:10.916Z,12.57
2023-04-21T01:42:08.754Z,12.90
2023-04-21T01:43:05.986Z,13.90
2023-04-21T01:44:02.654Z,12.48
2023-04-21T01:45:00.006Z,11.77
2023-04-21T01:45:56.821Z,11.55
2023-04-21T01:46:53.492Z,11.48
2023-04-21T01:47:50.105Z,11.70
2023-04-21T01:48:47.007Z,10.88
2023-04-21T01:49:43.574Z,11.18
2023-04-21T01:50:40.236Z,10.80
2023-04-21T01:51:36.839Z,12.18
2023-04-21T01:52:33.410Z,13.30
2023-04-21T01:53:30.008Z,12.50
2023-04-21T01:54:26.646Z,12.70
2023-04-21T01:55:23.329Z,12.27
2023-04-21T01:56:20.332Z,12.80
2023-04-21T01:57:17.599Z,13.00
2023-04-21T01:58:14.258Z,13.35
2023-04-21T01:59:10.914Z,13.75
2023-04-21T02:00:09.299Z,12.68
2023-04-21T02:01:05.949Z,12.93
2023-04-21T02:02:03.122Z,12.35
2023-04-21T02:02:59.966Z,11.15
2023-04-21T02:03:56.759Z,11.10
2023-04-21T02:04:53.494Z,11.23
2023-04-21T02:05:51.257Z,12.10
2023-04-21T02:06:47.884Z,11.55
2023-04-21T02:07:45.003Z,12.30
2023-04-21T02:08:41.683Z,12.38
2023-04-21T02:09:38.403Z,12.10
2023-04-21T02:10:35.221Z,12.32
2023-04-21T02:11:31.858Z,13.68
2023-04-21T02:12:28.499Z,12.65
2023-04-21T02:13:25.111Z,13.27
2023-04-21T02:14:21.664Z,13.52
2023-04-21T02:15:18.349Z,13.40
2023-04-21T02:16:14.973Z,13.88
2023-04-21T02:17:11.825Z,13.75
2023-04-21T02:18:08.628Z,13.95
2023-04-21T02:19:06.364Z,14.98
2023-04-21T02:20:04.354Z,14.38
2023-04-21T02:21:01.019Z,14.85
2023-04-21T02:21:57.698Z,13.77
2023-04-21T02:22:54.264Z,13.85
2023-04-21T02:23:52.047Z,12.88
2023-04-21T02:24:49.815Z,14.48
2023-04-21T02:25:46.382Z,13.57
2023-04-21T02:26:43.046Z,13.43
2023-04-21T02:27:39.717Z,12.63
2023-04-21T02:28:36.312Z,14.23
2023-04-21T02:29:32.924Z,13.15
2023-04-21T02:30:29.520Z,13.95
2023-04-21T02:31:26.264Z,14.50
2023-04-21T02:32:25.909Z,14.32
2023-04-21T02:33:23.067Z,14.10
2023-04-21T02:34:20.718Z,13.70
2023-04-21T02:35:17.362Z,14.18
2023-04-21T02:36:14.009Z,13.43
2023-04-21T02:37:10.773Z,14.93
2023-04-21T02:38:08.968Z,13.90
2023-04-21T02:39:05.640Z,15.30
2023-04-21T02:40:02.201Z,14.85
2023-04-21T02:40:58.961Z,14.25
2023-04-21T02:41:55.666Z,14.75
2023-04-21T02:42:52.299Z,14.95
2023-04-21T02:43:49.397Z,14.55
2023-04-21T02:44:46.119Z,14.55
2023-04-21T02:45:42.773Z,14.40
2023-04-21T02:46:42.254Z,14.85
2023-04-21T02:47:38.888Z,14.73
2023-04-21T02:48:36.606Z,14.18
2023-04-21T02:49:33.340Z,13.63
2023-04-21T02:50:30.140Z,14.02
2023-04-21T02:51:26.935Z,13.52
2023-04-21T02:52:23.616Z,14.27
2023-04-21T02:53:21.137Z,14.40
2023-04-21T02:54:17.723Z,15.18
2023-04-21T02:55:14.432Z,14.73
2023-04-21T02:56:11.096Z,13.15
2023-04-21T02:57:07.813Z,13.88
2023-04-21T02:58:04.422Z,13.13
2023-04-21T02:59:01.039Z,13.95
2023-04-21T02:59:57.685Z,14.15
2023-04-21T03:00:54.335Z,14.75
2023-04-21T03:01:51.126Z,14.38
2023-04-21T03:02:47.848Z,14.38
2023-04-21T03:03:44.679Z,14.25
2023-04-21T03:04:41.475Z,14.98
2023-04-21T03:05:38.227Z,14.05
2023-04-21T03:06:35.060Z,14.52
2023-04-21T03:07:31.653Z,15.00
2023-04-21T03:08:28.679Z,15.10
2023-04-21T03:09:25.484Z,15.15
2023-04-21T03:10:22.316Z,14.65
2023-04-21T03:11:18.948Z,15.57
2023-04-21T03:12:15.753Z,14.40
2023-04-21T03:13:12.360Z,14.65
2023-04-21T03:14:08.948Z,15.75
2023-04-21T03:15:06.398Z,14.02
2023-04-21T03:16:03.445Z,13.27
2023-04-21T03:17:00.180Z,13.32
2023-04-21T03:17:56.964Z,13.02
2023-04-21T03:18:53.679Z,13.90
2023-04-21T03:19:50.282Z,13.95
2023-04-21T03:20:46.877Z,14.93
2023-04-21T03:21:43.543Z,14.18
2023-04-21T03:22:40.352Z,15.23
2023-04-21T03:23:37.285Z,13.88
2023-04-21T03:24:33.943Z,14.82
2023-04-21T03:25:30.671Z,13.77
2023-04-21T03:26:27.344Z,14.40
2023-04-21T03:27:23.959Z,14.63
2023-04-21T03:28:20.668Z,13.32
2023-04-21T03:29:17.443Z,13.88
2023-04-21T03:30:14.343Z,14.63
2023-04-21T03:31:10.941Z,13.80
2023-04-21T03:32:07.646Z,14.38
2023-04-21T03:33:04.847Z,14.63
2023-04-21T03:34:01.659Z,14.80
2023-04-21T03:34:58.343Z,14.65
2023-04-21T03:35:54.989Z,14.45
2023-04-21T03:36:51.574Z,15.68
2023-04-21T03:37:49.826Z,15.85
2023-04-21T03:38:46.462Z,15.82
2023-04-21T03:39:43.106Z,15.13
2023-04-21T03:40:39.736Z,15.85
2023-04-21T03:41:36.496Z,16.52
2023-04-21T03:42:33.146Z,16.15
2023-04-21T03:43:29.767Z,15.25
2023-04-21T03:44:27.274Z,15.88
2023-04-21T03:45:24.244Z,15.63
2023-04-21T03:46:22.383Z,15.70
2023-04-21T03:47:19.081Z,15.98
2023-04-21T03:48:16.081Z,14.88
2023-04-21T03:49:12.653Z,16.02
2023-04-21T03:50:09.419Z,16.60
2023-04-21T03:51:06.043Z,15.82
2023-04-21T03:52:03.146Z,15.25
2023-04-21T03:52:59.801Z,15.68
2023-04-21T03:53:56.361Z,15.77
2023-04-21T03:54:52.934Z,15.68
2023-04-21T03:55:52.786Z,15.35
2023-04-21T03:56:49.376Z,15.43
2023-04-21T03:57:46.066Z,16.08
2023-04-21T03:58:42.798Z,18.00
2023-04-21T03:59:39.358Z,16.48
2023-04-21T04:00:35.982Z,17.02
2023-04-21T04:01:34.721Z,17.08
2023-04-21T04:02:31.457Z,15.93
2023-04-21T04:03:28.229Z,17.33
2023-04-21T04:04:25.279Z,16.58
2023-04-21T04:05:22.075Z,15.40
2023-04-21T04:06:18.696Z,16.20
2023-04-21T04:07:17.618Z,17.15
2023-04-21T04:08:14.317Z,16.95
2023-04-21T04:09:11.084Z,17.20
2023-04-21T04:10:07.879Z,17.38
2023-04-21T04:11:04.594Z,17.13
2023-04-21T04:12:03.436Z,17.55
2023-04-21T04:13:00.208Z,17.13
2023-04-21T04:13:56.819Z,17.75
2023-04-21T04:14:53.497Z,18.63
2023-04-21T04:15:50.350Z,17.30
2023-04-21T04:16:46.995Z,16.50
2023-04-21T04:17:43.556Z,17.27
2023-04-21T04:18:40.603Z,17.02
2023-04-21T04:19:37.187Z,16.08
2023-04-21T04:20:33.764Z,16.70
2023-04-21T04:21:32.557Z,16.85
2023-04-21T04:22:29.146Z,17.55
2023-04-21T04:23:26.186Z,16.10
2023-04-21T04:24:22.798Z,16.67
2023-04-21T04:25:19.534Z,15.48
2023-04-21T04:26:16.219Z,16.45
2023-04-21T04:27:15.400Z,15.55
2023-04-21T04:28:12.771Z,15.88
2023-04-21T04:29:10.730Z,16.13
2023-04-21T04:30:08.076Z,15.60
2023-04-21T04:31:04.822Z,17.25
2023-04-21T04:32:04.264Z,15.20
2023-04-21T04:33:01.699Z,15.25
2023-04-21T04:33:58.373Z,15.52
2023-04-21T04:34:58.962Z,14.40
2023-04-21T04:35:55.504Z,15.05
2023-04-21T04:36:52.261Z,15.02
2023-04-21T04:37:49.801Z,14.65
2023-04-21T04:38:46.921Z,14.88
2023-04-21T04:39:43.575Z,14.00
2023-04-21T04:40:40.598Z,14.68
2023-04-21T04:41:37.955Z,14.63
2023-04-21T04:42:34.809Z,14.25
2023-04-21T04:43:33.598Z,13.63
2023-04-21T04:44:30.499Z,13.95
2023-04-21T04:45:28.645Z,13.98
2023-04-21T04:46:25.821Z,14.73
2023-04-21T04:47:22.454Z,14.80
2023-04-21T04:48:19.541Z,12.93
2023-04-21T04:49:16.626Z,13.77
2023-04-21T04:50:13.246Z,14.02
2023-04-21T04:51:09.838Z,14.20
2023-04-21T04:52:07.100Z,13.35
2023-04-21T04:53:03.694Z,11.77
2023-04-21T04:54:00.307Z,13.52
2023-04-21T04:54:56.981Z,14.02
2023-04-21T04:55:53.802Z,14.38
2023-04-21T04:56:50.508Z,14.38
2023-04-21T04:57:47.122Z,14.40
2023-04-21T04:58:46.483Z,13.35
2023-04-21T04:59:43.142Z,13.73
2023-04-21T05:00:42.047Z,15.07
2023-04-21T05:01:40.202Z,14.45
2023-04-21T05:02:38.448Z,14.32
2023-04-21T05:03:35.398Z,14.25
2023-04-21T05:04:33.737Z,14.57
2023-04-21T05:05:30.689Z,13.45
2023-04-21T05:06:28.556Z,13.52
2023-04-21T05:07:25.824Z,13.90
2023-04-21T05:08:22.393Z,14.32
2023-04-21T05:09:19.001Z,12.90
2023-04-21T05:10:15.731Z,12.82
2023-04-21T05:11:12.323Z,12.80
2023-04-21T05:12:08.988Z,12.73
2023-04-21T05:13:05.792Z,12.88
2023-04-21T05:14:02.454Z,12.65
2023-04-21T05:14:59.155Z,13.40
2023-04-21T05:15:59.142Z,13.52
2023-04-21T05:16:56.044Z,13.48
2023-04-21T05:17:52.823Z,12.65
2023-04-21T05:18:53.874Z,12.20
2023-04-21T05:19:50.854Z,12.73
2023-04-21T05:20:47.382Z,11.93
2023-04-21T05:21:43.970Z,12.50
2023-04-21T05:22:41.175Z,11.98
2023-04-21T05:23:37.792Z,11.27
2023-04-21T05:24:34.879Z,11.75
2023-04-21T05:25:31.524Z,11.60
2023-04-21T05:26:29.144Z,11.52
2023-04-21T05:27:25.707Z,11.75
2023-04-21T05:28:23.246Z,10.80
2023-04-21T05:29:20.001Z,11.38
2023-04-21T05:30:16.768Z,10.35
2023-04-21T05:31:13.510Z,10.82
2023-04-21T05:32:12.318Z,11.25
2023-04-21T05:33:09.559Z,11.25
2023-04-21T05:34:06.351Z,9.15
2023-04-21T05:35:03.114Z,12.23
2023-04-21T05:35:59.758Z,10.07
2023-04-21T05:36:56.567Z,10.50
2023-04-21T05:37:53.144Z,11.43
2023-04-21T05:38:49.737Z,10.50
2023-04-21T05:39:46.533Z,8.55
2023-04-21T05:40:43.267Z,11.20
2023-04-21T05:41:42.424Z,10.38
2023-04-21T05:42:39.451Z,10.93
2023-04-21T05:43:36.062Z,11.43
2023-04-21T05:44:32.620Z,10.75
2023-04-21T05:45:29.251Z,10.05
2023-04-21T05:46:26.016Z,11.27
2023-04-21T05:47:22.779Z,10.52
2023-04-21T05:48:19.649Z,10.10
2023-04-21T05:49:16.334Z,10.93
2023-04-21T05:50:13.124Z,11.48
2023-04-21T05:51:11.166Z,11.93
2023-04-21T05:52:10.502Z,10.95
2023-04-21T05:53:07.144Z,10.25
2023-04-21T05:54:03.866Z,10.30
2023-04-21T05:55:01.259Z,10.50
2023-04-21T05:55:57.849Z,10.95
2023-04-21T05:56:54.427Z,10.60
2023-04-21T05:57:51.123Z,10.85
2023-04-21T05:58:47.771Z,10.80
2023-04-21T05:59:44.471Z,11.10
2023-04-21T06:00:42.520Z,10.77
2023-04-21T06:01:39.124Z,10.52
2023-04-21T06:02:35.944Z,10.48
2023-04-21T06:03:33.527Z,10.65
2023-04-21T06:04:30.695Z,12.05
2023-04-21T06:05:27.654Z,11.52
2023-04-21T06:06:27.760Z,10.75
2023-04-21T06:07:24.398Z,10.73
2023-04-21T06:08:21.401Z,11.75
2023-04-21T06:09:18.103Z,10.30
2023-04-21T06:10:14.908Z,11.20
2023-04-21T06:11:11.598Z,11.80
2023-04-21T06:12:08.279Z,10.45
2023-04-21T06:13:04.898Z,10.85
2023-04-21T06:14:01.889Z,11.45
2023-04-21T06:14:59.308Z,11.48
2023-04-21T06:15:55.952Z,11.40
2023-04-21T06:16:52.555Z,11.60
2023-04-21T06:17:54.128Z,11.75
2023-04-21T06:18:50.750Z,11.63
2023-04-21T06:19:52.927Z,11.32
2023-04-21T06:20:56.718Z,11.00
2023-04-21T06:21:53.304Z,9.60
2023-04-21T06:22:50.543Z,11.77
2023-04-21T06:23:47.146Z,11.52
2023-04-21T06:24:43.752Z,10.35
2023-04-21T06:25:40.383Z,11.90
2023-04-21T06:26:36.953Z,12.30
2023-04-21T06:27:33.762Z,11.55
2023-04-21T06:28:33.682Z,12.00
2023-04-21T06:29:30.309Z,11.70
2023-04-21T06:30:26.898Z,12.27
2023-04-21T06:31:23.702Z,10.93
2023-04-21T06:32:20.495Z,11.68
2023-04-21T06:33:17.097Z,11.48
2023-04-21T06:34:13.718Z,12.45
2023-04-21T06:35:10.580Z,12.65
2023-04-21T06:36:07.647Z,13.18
2023-04-21T06:37:04.497Z,13.25
2023-04-21T06:38:01.088Z,12.80
2023-04-21T06:38:57.775Z,12.82
2023-04-21T06:39:54.456Z,13.20
2023-04-21T06:40:51.358Z,12.63
2023-04-21T06:41:47.947Z,11.70
2023-04-21T06:42:44.574Z,13.00
2023-04-21T06:43:41.481Z,11.85
2023-04-21T06:44:39.085Z,13.13
2023-04-21T06:45:35.659Z,13.20
2023-04-21T06:46:32.358Z,12.65
2023-04-21T06:47:29.027Z,12.60
2023-04-21T06:48:26.452Z,12.70
2023-04-21T06:49:23.210Z,11.50
2023-04-21T06:50:19.786Z,12.20
2023-04-21T06:51:16.380Z,12.00
2023-04-21T06:52:13.150Z,11.20
2023-04-21T06:53:11.677Z,12.25
2023-04-21T06:54:08.326Z,12.25
2023-04-21T06:55:05.821Z,11.90
2023-04-21T06:56:03.289Z,13.55
2023-04-21T06:56:59.978Z,12.57
2023-04-21T06:57:56.595Z,12.63
2023-04-21T06:58:53.410Z,13.30
2023-04-21T06:59:49.988Z,13.38
2023-04-21T07:00:46.552Z,13.05
2023-04-21T07:01:43.165Z,12.20
2023-04-21T07:02:39.870Z,12.65
2023-04-21T07:03:36.776Z,13.02
2023-04-21T07:04:33.545Z,12.77
2023-04-21T07:05:30.353Z,12.70
2023-04-21T07:06:27.252Z,13.15
2023-04-21T07:07:23.879Z,12.48
2023-04-21T07:08:20.465Z,12.55
2023-04-21T07:09:17.256Z,12.05
2023-04-21T07:10:19.155Z,12.65
2023-04-21T07:11:15.804Z,12.88
2023-04-21T07:12:12.409Z,11.95
2023-04-21T07:13:10.104Z,12.30
2023-04-21T07:14:06.919Z,11.68
2023-04-21T07:15:03.986Z,12.15
2023-04-21T07:16:00.722Z,12.68
2023-04-21T07:16:57.493Z,12.48
2023-04-21T07:17:54.240Z,12.10
2023-04-21T07:18:50.851Z,12.18
2023-04-21T07:19:47.558Z,12.35
2023-04-21T07:20:44.343Z,12.13
2023-04-21T07:21:40.963Z,12.90
2023-04-21T07:22:37.666Z,11.98
2023-04-21T07:23:34.224Z,12.20
2023-04-21T07:24:31.181Z,12.25
2023-04-21T07:25:27.797Z,11.80
2023-04-21T07:26:24.736Z,11.57
2023-04-21T07:27:21.376Z,11.80
2023-04-21T07:28:18.041Z,11.30
2023-04-21T07:29:14.602Z,11.95
2023-04-21T07:30:11.686Z,12.68
2023-04-21T07:31:08.320Z,11.70
2023-04-21T07:32:04.911Z,11.90
2023-04-21T07:33:01.561Z,11.18
2023-04-21T07:33:58.227Z,11.50
2023-04-21T07:34:54.882Z,10.88
2023-04-21T07:35:51.496Z,12.07
2023-04-21T07:36:48.191Z,11.85
2023-04-21T07:37:44.820Z,10.82
2023-04-21T07:38:43.520Z,10.55
2023-04-21T07:39:40.114Z,11.48
2023-04-21T07:40:36.753Z,11.32
2023-04-21T07:41:33.664Z,11.68
2023-04-21T07:42:30.524Z,11.82
2023-04-21T07:43:27.313Z,11.10
2023-04-21T07:44:24.098Z,10.63
2023-04-21T07:45:21.009Z,10.77
2023-04-21T07:46:17.763Z,10.75
2023-04-21T07:47:14.704Z,11.43
2023-04-21T07:48:11.339Z,11.15
2023-04-21T07:49:08.256Z,12.48
2023-04-21T07:50:05.299Z,11.10
2023-04-21T07:51:03.395Z,10.70
2023-04-21T07:52:00.003Z,12.43
2023-04-21T07:52:56.739Z,10.80
2023-04-21T07:53:53.988Z,10.82
2023-04-21T07:54:51.210Z,9.50
2023-04-21T07:55:47.748Z,10.07
2023-04-21T07:56:44.320Z,9.68
2023-04-21T07:57:41.030Z,10.07
2023-04-21T07:58:37.647Z,9.05
2023-04-21T07:59:34.299Z,8.82
2023-04-21T08:00:31.125Z,9.38
2023-04-21T08:01:27.882Z,9.57
2023-04-21T08:02:24.513Z,10.00
2023-04-21T08:03:23.822Z,8.90
2023-04-21T08:04:21.204Z,9.48
2023-04-21T08:05:18.498Z,9.10
2023-04-21T08:06:15.544Z,9.82
2023-04-21T08:07:13.821Z,9.50
2023-04-21T08:08:10.622Z,8.07
2023-04-21T08:09:07.441Z,8.48
2023-04-21T08:10:04.315Z,8.30
2023-04-21T08:11:01.492Z,8.40
2023-04-21T08:11:58.191Z,8.30
2023-04-21T08:12:54.806Z,7.88
2023-04-21T08:13:51.624Z,7.03
2023-04-21T08:14:49.637Z,7.30
2023-04-21T08:15:46.346Z,7.60
2023-04-21T08:16:43.232Z,7.30
2023-04-21T08:17:40.058Z,7.40
2023-04-21T08:18:36.753Z,7.40
2023-04-21T08:19:33.449Z,8.00
2023-04-21T08:20:30.339Z,6.68
2023-04-21T08:21:27.963Z,7.60
2023-04-21T08:22:25.638Z,7.63
2023-04-21T08:23:22.340Z,7.07
2023-04-21T08:24:19.279Z,7.40
2023-04-21T08:25:16.159Z,6.63
2023-04-21T08:26:13.311Z,7.90
2023-04-21T08:27:10.132Z,7.40
2023-04-21T08:28:06.961Z,7.70
2023-04-21T08:29:05.542Z,6.80
2023-04-21T08:30:02.183Z,7.20
2023-04-21T08:31:00.493Z,7.75
2023-04-21T08:31:57.192Z,7.05
2023-04-21T08:32:54.016Z,8.32
2023-04-21T08:34:01.305Z,6.85
2023-04-21T08:34:58.857Z,7.47
2023-04-21T08:36:58.195Z,7.25
2023-04-21T08:37:54.809Z,7.70
2023-04-21T08:38:51.457Z,8.25
2023-04-21T08:39:50.894Z,7.78
2023-04-21T08:40:48.042Z,7.55
2023-04-21T08:41:44.805Z,7.10
2023-04-21T08:42:41.953Z,7.88
2023-04-21T08:43:40.675Z,7.55
2023-04-21T08:44:37.470Z,7.97
2023-04-21T08:45:35.101Z,7.22
2023-04-21T08:46:33.551Z,7.85
2023-04-21T08:47:32.225Z,6.75
2023-04-21T08:48:29.889Z,8.07
2023-04-21T08:49:30.942Z,8.43
2023-04-21T08:50:29.715Z,7.63
2023-04-21T08:51:28.787Z,7.95
2023-04-21T08:52:25.646Z,7.07
2023-04-21T08:53:22.423Z,7.13
2023-04-21T08:54:19.022Z,8.02
2023-04-21T08:55:16.115Z,7.80
2023-04-21T08:56:12.664Z,7.10
2023-04-21T08:57:15.449Z,7.40
2023-04-21T08:58:13.467Z,6.65
2023-04-21T08:59:10.179Z,7.78
2023-04-21T09:00:08.174Z,7.55
2023-04-21T09:01:05.448Z,7.38
2023-04-21T09:02:16.786Z,7.15
2023-04-21T09:03:24.926Z,7.60
2023-04-21T09:04:22.571Z,7.07
2023-04-21T09:05:31.015Z,7.50
2023-04-21T09:06:41.459Z,7.95
2023-04-21T09:07:41.527Z,7.03
2023-04-21T09:08:42.187Z,7.78
2023-04-21T09:09:52.526Z,7.60
2023-04-21T09:10:50.801Z,6.95
2023-04-21T09:11:58.916Z,6.95
2023-04-21T09:12:56.074Z,7.05
2023-04-21T09:13:57.089Z,7.38
2023-04-21T09:14:54.197Z,6.90
2023-04-21T09:15:54.112Z,7.85
2023-04-21T09:17:01.218Z,7.47
2023-04-21T09:17:57.961Z,6.78
2023-04-21T09:18:54.735Z,6.35
2023-04-21T09:19:51.496Z,6.88
2023-04-21T09:20:50.843Z,6.43
2023-04-21T09:21:47.467Z,6.70
2023-04-21T09:22:44.937Z,6.65
2023-04-21T09:23:45.503Z,6.65
2023-04-21T09:24:49.519Z,6.60
2023-04-21T09:25:46.201Z,6.35
2023-04-21T09:26:42.914Z,6.20
2023-04-21T09:27:41.642Z,6.90
2023-04-21T09:28:44.781Z,6.72
2023-04-21T09:29:48.180Z,5.65
2023-04-21T09:30:45.201Z,6.35
2023-04-21T09:31:44.449Z,5.95
2023-04-21T09:32:41.763Z,6.18
2023-04-21T09:33:49.596Z,6.03
2023-04-21T09:35:01.017Z,6.05
2023-04-21T09:36:01.570Z,6.35
2023-04-21T09:37:05.117Z,6.25
2023-04-21T09:38:12.408Z,6.28
2023-04-21T09:40:12.834Z,6.25
2023-04-21T09:41:09.435Z,6.30
2023-04-21T09:42:06.609Z,8.80
2023-04-21T09:43:03.342Z,10.15
2023-04-21T09:44:04.723Z,7.35
2023-04-21T09:45:28.436Z,5.38
2023-04-21T09:46:19.694Z,6.03
2023-04-21T09:47:17.040Z,6.40
2023-04-21T09:48:17.573Z,6.30
2023-04-21T09:49:17.560Z,5.63
2023-04-21T09:50:16.338Z,5.78
2023-04-21T09:51:28.733Z,6.40
2023-04-21T09:52:33.759Z,7.18
2023-04-21T09:53:35.145Z,6.93
2023-04-21T09:54:33.124Z,6.63
2023-04-21T09:55:31.247Z,7.03
2023-04-21T09:56:30.256Z,6.72
2023-04-21T09:57:28.916Z,6.90
2023-04-21T09:58:31.408Z,6.70
2023-04-21T10:00:33.583Z,6.55
2023-04-21T10:01:30.930Z,6.82
2023-04-21T10:02:31.398Z,6.22
2023-04-21T10:03:29.865Z,6.35
2023-04-21T10:04:29.411Z,5.25
2023-04-21T10:05:26.630Z,6.50
2023-04-21T10:06:23.570Z,6.85
2023-04-21T10:07:20.201Z,6.80
2023-04-21T10:08:17.450Z,7.03
2023-04-21T10:09:18.419Z,6.47
2023-04-21T10:10:28.345Z,6.25
2023-04-21T10:11:25.035Z,6.25
2023-04-21T10:12:22.772Z,6.35
2023-04-21T10:13:19.544Z,7.00
2023-04-21T10:14:16.232Z,5.93
2023-04-21T10:15:32.574Z,6.57
2023-04-21T10:16:29.324Z,5.78
2023-04-21T10:17:26.892Z,4.90
2023-04-21T10:18:25.270Z,5.78
2023-04-21T10:19:27.039Z,5.00
2023-04-21T10:20:23.611Z,6.13
2023-04-21T10:21:22.195Z,5.57
2023-04-21T10:22:30.045Z,7.28
2023-04-21T10:23:33.047Z,6.50
2023-04-21T10:24:30.874Z,7.70
2023-04-21T10:25:29.759Z,7.78
2023-04-21T10:26:32.637Z,8.05
2023-04-21T10:27:34.737Z,6.60
2023-04-21T10:29:00.215Z,6.30
2023-04-21T10:29:58.655Z,6.95
2023-04-21T10:31:33.712Z,6.22
2023-04-21T10:32:43.414Z,5.40
2023-04-21T10:33:40.049Z,5.95
2023-04-21T10:34:41.256Z,5.50
2023-04-21T10:36:00.243Z,6.07
2023-04-21T10:36:57.297Z,6.80
2023-04-21T10:37:54.070Z,6.50
2023-04-21T10:38:57.231Z,6.35
2023-04-21T10:39:55.532Z,6.38
2023-04-21T10:40:52.117Z,6.50
2023-04-21T10:41:48.729Z,6.43
2023-04-21T10:42:45.384Z,5.68
2023-04-21T10:43:49.255Z,5.88
2023-04-21T10:44:56.513Z,5.07
2023-04-21T10:45:55.864Z,4.65
2023-04-21T10:46:54.021Z,4.20
2023-04-21T10:47:53.049Z,3.88
2023-04-21T10:48:52.965Z,3.70
2023-04-21T10:49:50.098Z,4.05
2023-04-21T10:50:48.866Z,3.50
2023-04-21T10:52:03.440Z,3.28
2023-04-21T10:53:10.300Z,3.67
2023-04-21T10:54:06.939Z,3.33
2023-04-21T10:55:04.032Z,3.08
2023-04-21T10:56:01.087Z,3.28
2023-04-21T10:56:59.327Z,3.60
2023-04-21T10:57:56.389Z,3.38
2023-04-21T10:58:53.450Z,3.22
2023-04-21T10:59:50.106Z,3.35
2023-04-21T11:00:46.994Z,2.90
2023-04-21T11:01:43.639Z,3.63
2023-04-21T11:02:41.863Z,3.08
2023-04-21T11:03:41.210Z,3.30
2023-04-21T11:04:45.274Z,2.88
2023-04-21T11:05:42.603Z,2.95
2023-04-21T11:06:39.274Z,3.40
2023-04-21T11:07:36.020Z,3.00
2023-04-21T11:08:32.596Z,3.30
2023-04-21T11:09:29.271Z,3.70
2023-04-21T11:10:25.881Z,3.40
2023-04-21T11:11:27.122Z,4.15
2023-04-21T11:12:47.106Z,2.85
2023-04-21T11:13:43.699Z,3.05
2023-04-21T11:14:41.908Z,7.30
2023-04-21T11:15:40.918Z,2.72
2023-04-21T11:16:38.102Z,3.10
2023-04-21T11:17:36.261Z,7.03
2023-04-21T11:18:43.981Z,8.60
2023-04-21T11:19:40.753Z,6.78
2023-04-21T11:20:41.647Z,2.90
2023-04-21T11:21:38.565Z,4.82
2023-04-21T11:22:37.259Z,2.97
2023-04-21T11:23:33.911Z,3.40
2023-04-21T11:24:31.712Z,3.03
2023-04-21T11:25:28.364Z,6.80
2023-04-21T11:26:40.860Z,5.07
2023-04-21T11:27:37.538Z,5.15
2023-04-21T11:28:34.175Z,3.67
2023-04-21T11:29:30.910Z,3.60
2023-04-21T11:30:35.108Z,3.25
2023-04-21T11:31:32.670Z,3.05
2023-04-21T11:32:29.565Z,3.50
2023-04-21T11:33:29.307Z,3.72
2023-04-21T11:34:26.946Z,3.20
2023-04-21T11:35:23.753Z,3.40
2023-04-21T11:36:22.079Z,3.63
2023-04-21T11:37:29.897Z,4.20
2023-04-21T11:38:26.606Z,4.07
2023-04-21T11:39:23.703Z,4.15
2023-04-21T11:40:20.518Z,4.18
2023-04-21T11:41:25.599Z,4.10
2023-04-21T11:42:22.906Z,3.95
2023-04-21T11:43:21.286Z,4.28
2023-04-21T11:44:41.339Z,4.30
2023-04-21T11:45:38.228Z,4.20
2023-04-21T11:46:37.373Z,4.38
2023-04-21T11:47:34.089Z,4.10
2023-04-21T11:48:30.734Z,4.38
2023-04-21T11:49:30.726Z,4.78
2023-04-21T11:50:33.970Z,4.25
2023-04-21T11:51:39.718Z,3.80
2023-04-21T11:52:37.686Z,4.05
2023-04-21T11:53:34.379Z,4.53
2023-04-21T11:54:31.102Z,3.40
2023-04-21T11:55:28.896Z,4.28
2023-04-21T11:56:25.572Z,3.85
2023-04-21T11:57:23.145Z,3.75
2023-04-21T11:58:21.394Z,3.33
2023-04-21T11:59:26.394Z,4.35
2023-04-21T12:00:23.042Z,4.00
2023-04-21T12:01:21.597Z,3.58
2023-04-21T12:02:29.419Z,4.10
2023-04-21T12:03:26.576Z,4.10
2023-04-21T12:04:26.014Z,3.67
2023-04-21T12:05:23.885Z,4.10
2023-04-21T12:06:22.052Z,4.00
2023-04-21T12:07:23.006Z,3.70
2023-04-21T12:08:19.682Z,3.97
2023-04-21T12:09:21.040Z,3.80
2023-04-21T12:10:21.505Z,3.53
2023-04-21T12:11:18.303Z,3.90
2023-04-21T12:12:15.446Z,4.38
2023-04-21T12:13:12.409Z,4.07
2023-04-21T12:14:09.174Z,4.10
2023-04-21T12:15:07.446Z,3.90
2023-04-21T12:16:04.418Z,3.92
2023-04-21T12:17:01.088Z,3.53
2023-04-21T12:17:57.798Z,4.00
2023-04-21T12:18:56.027Z,3.83
2023-04-21T12:19:52.772Z,4.00
2023-04-21T12:20:53.061Z,4.40
2023-04-21T12:21:58.809Z,3.72
2023-04-21T12:22:56.529Z,3.28
2023-04-21T12:23:53.100Z,4.03
2023-04-21T12:24:49.696Z,3.15
2023-04-21T12:25:47.093Z,4.35
2023-04-21T12:26:44.274Z,3.72
2023-04-21T12:27:59.305Z,3.97
2023-04-21T12:28:56.203Z,3.95
2023-04-21T12:29:52.806Z,4.18
2023-04-21T12:30:49.445Z,3.70
2023-04-21T12:31:46.152Z,4.00
2023-04-21T12:32:42.953Z,4.68
2023-04-21T12:33:40.124Z,3.65
2023-04-21T12:34:36.970Z,4.22
2023-04-21T12:35:34.099Z,3.97
2023-04-21T12:36:30.952Z,4.35
2023-04-21T12:37:27.639Z,3.85
2023-04-21T12:38:24.288Z,4.13
2023-04-21T12:39:21.998Z,4.35
2023-04-21T12:40:18.786Z,4.07
2023-04-21T12:41:15.537Z,3.97